createdAt,value
2022-09-15T00:01:17.403Z,77.25
2022-09-15T00:03:15.511Z,77.18
2022-09-15T00:05:14.881Z,77.52
2022-09-15T00:07:13.039Z,78.47
2022-09-15T00:09:11.171Z,77.86
2022-09-15T00:11:13.356Z,78.20
2022-09-15T00:13:11.489Z,79.06
2022-09-15T00:15:10.401Z,78.18
2022-09-15T00:17:08.700Z,78.30
2022-09-15T00:19:07.674Z,78.83
2022-09-15T00:21:07.943Z,79.07
2022-09-15T00:23:06.223Z,79.58
2022-09-15T00:25:04.956Z,79.63
2022-09-15T00:27:05.117Z,80.50
2022-09-15T00:29:03.919Z,79.81
2022-09-15T00:31:05.662Z,79.94
2022-09-15T00:33:04.089Z,80.53
2022-09-15T00:35:02.527Z,80.08
2022-09-15T00:37:00.770Z,80.23
2022-09-15T00:38:59.483Z,80.26
2022-09-15T00:40:59.547Z,80.67
2022-09-15T00:42:59.293Z,80.29
2022-09-15T00:44:59.827Z,80.57
2022-09-15T00:47:18.393Z,81.03
2022-09-15T00:49:20.286Z,81.20
2022-09-15T00:51:24.250Z,80.11
2022-09-15T00:53:23.887Z,80.12
2022-09-15T00:55:28.214Z,79.69
2022-09-15T00:57:31.269Z,78.39
2022-09-15T00:59:34.644Z,78.06
2022-09-15T01:01:33.748Z,77.20
2022-09-15T01:03:34.520Z,77.23
2022-09-15T01:05:36.927Z,76.37
2022-09-15T01:07:38.783Z,77.06
2022-09-15T01:09:41.026Z,75.61
2022-09-15T01:11:39.907Z,74.83
2022-09-15T01:13:38.165Z,75.00
2022-09-15T01:15:47.426Z,76.38
2022-09-15T01:18:07.588Z,75.81
2022-09-15T01:20:37.604Z,74.83
2022-09-15T01:22:46.296Z,75.13
2022-09-15T01:24:53.731Z,74.48
2022-09-15T01:27:42.111Z,75.04
2022-09-15T01:30:12.488Z,75.67
2022-09-15T01:32:33.946Z,75.43
2022-09-15T01:34:39.536Z,75.11
2022-09-15T01:36:45.540Z,74.29
2022-09-15T01:38:51.785Z,74.15
2022-09-15T01:40:56.937Z,74.22
2022-09-15T01:42:58.579Z,75.06
2022-09-15T01:45:02.136Z,74.94
2022-09-15T01:47:08.108Z,74.58
2022-09-15T01:49:10.805Z,75.27
2022-09-15T01:51:09.785Z,75.59
2022-09-15T01:53:14.264Z,75.53
2022-09-15T01:55:17.685Z,75.35
2022-09-15T01:57:17.317Z,74.88
2022-09-15T01:59:15.429Z,75.92
2022-09-15T02:01:20.295Z,75.95
2022-09-15T02:03:25.469Z,77.05
2022-09-15T02:05:27.062Z,76.80
2022-09-15T02:07:35.694Z,76.95
2022-09-15T02:09:38.135Z,77.08
2022-09-15T02:11:39.805Z,76.90
2022-09-15T02:13:48.874Z,76.71
2022-09-15T02:15:51.801Z,76.83
2022-09-15T02:17:55.408Z,76.80
2022-09-15T02:19:59.001Z,76.61
2022-09-15T02:22:03.041Z,76.94
2022-09-15T02:24:07.501Z,77.99
2022-09-15T02:26:09.990Z,77.52
2022-09-15T02:28:11.567Z,77.97
2022-09-15T02:30:13.518Z,78.76
2022-09-15T02:32:13.773Z,78.51
2022-09-15T02:34:17.073Z,78.72
2022-09-15T02:36:20.838Z,79.38
2022-09-15T02:38:19.311Z,79.58
2022-09-15T02:40:17.657Z,80.25
2022-09-15T02:42:24.593Z,80.86
2022-09-15T02:44:23.661Z,80.75
2022-09-15T02:46:24.730Z,80.19
2022-09-15T02:48:25.373Z,81.00
2022-09-15T02:50:24.411Z,80.71
2022-09-15T02:52:23.991Z,80.96
2022-09-15T02:54:22.287Z,80.73
2022-09-15T02:56:20.904Z,80.65
2022-09-15T02:58:18.978Z,80.49
2022-09-15T03:00:17.612Z,80.43
2022-09-15T03:02:16.515Z,80.27
2022-09-15T03:04:15.095Z,80.47
2022-09-15T03:06:21.654Z,80.85
2022-09-15T03:08:21.162Z,81.39
2022-09-15T03:10:20.086Z,81.67
2022-09-15T03:12:18.272Z,82.88
2022-09-15T03:14:16.430Z,83.24
2022-09-15T03:16:16.673Z,84.26
2022-09-15T03:18:14.984Z,84.95
2022-09-15T03:20:15.384Z,84.30
2022-09-15T03:22:13.530Z,83.80
2022-09-15T03:24:15.439Z,84.25
2022-09-15T03:26:13.744Z,83.69
2022-09-15T03:28:11.864Z,83.52
2022-09-15T03:30:11.672Z,84.01
2022-09-15T03:32:10.931Z,84.46
2022-09-15T03:34:09.222Z,83.98
2022-09-15T03:36:08.113Z,84.52
2022-09-15T03:38:06.713Z,83.50
2022-09-15T03:40:07.598Z,83.39
2022-09-15T03:42:05.981Z,83.37
2022-09-15T03:44:03.629Z,83.51
2022-09-15T03:46:02.297Z,84.12
2022-09-15T03:48:00.380Z,84.48
2022-09-15T03:49:58.617Z,85.00
2022-09-15T03:51:57.196Z,85.22
2022-09-15T03:53:56.804Z,85.41
2022-09-15T03:55:56.508Z,85.21
2022-09-15T03:57:54.695Z,85.26
2022-09-15T03:59:52.846Z,85.13
2022-09-15T04:01:51.712Z,85.17
2022-09-15T04:03:51.511Z,85.02
2022-09-15T04:05:49.876Z,85.00
2022-09-15T04:07:48.144Z,84.55
2022-09-15T04:09:46.378Z,84.05
2022-09-15T04:11:46.125Z,84.92
2022-09-15T04:13:44.743Z,84.39
2022-09-15T04:15:44.329Z,83.61
2022-09-15T04:17:42.704Z,83.63
2022-09-15T04:19:41.634Z,83.35
2022-09-15T04:21:39.911Z,83.68
2022-09-15T04:23:38.832Z,83.38
2022-09-15T04:25:36.895Z,83.17
2022-09-15T04:27:38.157Z,83.43
2022-09-15T04:29:36.477Z,82.68
2022-09-15T04:31:35.259Z,82.14
2022-09-15T04:33:34.097Z,82.68
2022-09-15T04:35:32.251Z,82.33
2022-09-15T04:37:30.418Z,82.48
2022-09-15T04:39:28.534Z,80.87
2022-09-15T04:41:27.582Z,79.34
2022-09-15T04:43:27.405Z,77.81
2022-09-15T04:45:25.632Z,77.30
2022-09-15T04:47:23.676Z,77.13
2022-09-15T04:49:21.805Z,75.41
2022-09-15T04:51:23.175Z,74.27
2022-09-15T04:53:21.732Z,74.43
2022-09-15T04:55:20.056Z,74.80
2022-09-15T04:57:18.290Z,74.76
2022-09-15T04:59:19.414Z,74.38
2022-09-15T05:01:20.044Z,72.61
2022-09-15T05:03:18.223Z,72.41
2022-09-15T05:05:16.570Z,72.74
2022-09-15T05:07:14.846Z,71.73
2022-09-15T05:09:15.158Z,69.98
2022-09-15T05:11:14.243Z,69.82
2022-09-15T05:13:12.494Z,70.01
2022-09-15T05:15:12.748Z,70.86
2022-09-15T05:17:10.870Z,69.85
2022-09-15T05:19:09.240Z,67.53
2022-09-15T05:21:09.361Z,66.37
2022-09-15T05:23:07.499Z,64.85
2022-09-15T05:25:07.027Z,63.59
2022-09-15T05:27:06.595Z,62.92
2022-09-15T05:29:04.868Z,64.16
2022-09-15T05:31:09.962Z,64.17
2022-09-15T05:33:08.133Z,62.20
2022-09-15T05:35:07.144Z,61.47
2022-09-15T05:37:06.075Z,60.17
2022-09-15T05:39:04.748Z,60.37
2022-09-15T05:41:04.126Z,61.38
2022-09-15T05:43:02.338Z,62.16
2022-09-15T05:45:00.497Z,61.15
2022-09-15T05:47:00.145Z,60.02
2022-09-15T05:48:59.891Z,58.01
2022-09-15T05:50:58.467Z,57.12
2022-09-15T05:52:56.591Z,57.49
2022-09-15T05:54:59.010Z,57.11
2022-09-15T05:56:57.482Z,58.40
2022-09-15T05:58:55.793Z,58.12
2022-09-15T06:00:54.760Z,56.78
2022-09-15T06:02:54.316Z,55.66
2022-09-15T06:04:52.692Z,55.03
2022-09-15T06:06:51.268Z,55.33
2022-09-15T06:08:55.403Z,55.27
2022-09-15T06:10:55.884Z,54.07
2022-09-15T06:13:00.685Z,54.76
2022-09-15T06:14:59.940Z,55.12
2022-09-15T06:16:58.103Z,53.68
2022-09-15T06:19:00.288Z,54.43
2022-09-15T06:20:58.614Z,55.18
2022-09-15T06:22:57.257Z,55.30
2022-09-15T06:24:55.317Z,55.95
2022-09-15T06:26:53.572Z,54.17
2022-09-15T06:28:53.680Z,52.83
2022-09-15T06:30:51.800Z,51.95
2022-09-15T06:32:50.362Z,50.51
2022-09-15T06:34:49.929Z,51.23
2022-09-15T06:36:47.960Z,51.67
2022-09-15T06:38:46.787Z,51.31
2022-09-15T06:40:45.268Z,50.42
2022-09-15T06:42:43.427Z,48.71
2022-09-15T06:44:42.729Z,48.93
2022-09-15T06:46:40.982Z,48.88
2022-09-15T06:48:40.679Z,47.68
2022-09-15T06:50:40.410Z,48.01
2022-09-15T06:52:38.524Z,49.23
2022-09-15T06:54:37.381Z,46.51
2022-09-15T06:56:38.061Z,47.36
2022-09-15T06:58:40.619Z,47.28
2022-09-15T07:00:38.804Z,47.64
2022-09-15T07:02:37.022Z,48.44
2022-09-15T07:04:37.031Z,48.71
2022-09-15T07:06:38.024Z,49.09
2022-09-15T07:08:36.621Z,47.63
2022-09-15T07:10:34.915Z,48.15
2022-09-15T07:12:33.825Z,47.46
2022-09-15T07:14:32.071Z,46.66
2022-09-15T07:16:31.082Z,45.57
2022-09-15T07:18:29.619Z,46.14
2022-09-15T07:20:28.110Z,46.69
2022-09-15T07:22:27.699Z,46.52
2022-09-15T07:24:26.017Z,46.28
2022-09-15T07:26:26.463Z,46.74
2022-09-15T07:28:24.594Z,45.09
2022-09-15T07:30:22.814Z,44.74
2022-09-15T07:32:21.083Z,43.72
2022-09-15T07:34:19.237Z,44.51
2022-09-15T07:36:18.618Z,44.33
2022-09-15T07:38:18.069Z,44.63
2022-09-15T07:40:16.464Z,44.42
2022-09-15T07:42:15.499Z,45.00
2022-09-15T07:44:14.198Z,43.99
2022-09-15T07:46:12.429Z,44.23
2022-09-15T07:48:10.609Z,44.93
2022-09-15T07:50:09.407Z,42.91
2022-09-15T07:52:07.557Z,42.36
2022-09-15T07:54:07.356Z,42.69
2022-09-15T07:56:05.860Z,42.47
2022-09-15T07:58:04.366Z,43.06
2022-09-15T08:00:02.679Z,42.13
2022-09-15T08:02:17.545Z,42.97
2022-09-15T08:04:15.940Z,42.09
2022-09-15T08:06:14.928Z,41.52
2022-09-15T08:08:13.126Z,41.57
2022-09-15T08:10:12.977Z,41.90
2022-09-15T08:12:11.330Z,41.96
2022-09-15T08:14:09.576Z,42.72
2022-09-15T08:16:09.648Z,42.11
2022-09-15T08:18:08.054Z,41.23
2022-09-15T08:20:07.512Z,39.55
2022-09-15T08:22:05.884Z,38.75
2022-09-15T08:24:04.359Z,37.91
2022-09-15T08:26:09.639Z,37.49
2022-09-15T08:28:10.098Z,38.05
2022-09-15T08:30:09.368Z,39.32
2022-09-15T08:32:08.497Z,38.58
2022-09-15T08:34:07.053Z,38.26
2022-09-15T08:36:07.068Z,38.37
2022-09-15T08:38:05.599Z,37.22
2022-09-15T08:40:05.212Z,35.51
2022-09-15T08:42:06.278Z,35.69
2022-09-15T08:44:12.366Z,36.20
2022-09-15T08:46:16.978Z,34.44
2022-09-15T08:48:18.336Z,34.38
2022-09-15T08:50:27.399Z,34.53
2022-09-15T08:52:31.560Z,33.29
2022-09-15T08:54:31.651Z,33.93
2022-09-15T08:56:30.783Z,34.29
2022-09-15T08:58:33.178Z,33.26
2022-09-15T09:00:32.299Z,31.79
2022-09-15T09:02:55.512Z,30.21
2022-09-15T09:05:21.986Z,29.55
2022-09-15T09:07:34.376Z,28.91
2022-09-15T09:09:37.893Z,28.52
2022-09-15T09:12:01.560Z,28.39
2022-09-15T09:14:14.408Z,26.34
2022-09-15T09:16:42.378Z,25.28
2022-09-15T09:18:58.909Z,24.96
2022-09-15T09:21:07.146Z,24.78
2022-09-15T09:23:12.100Z,24.15
2022-09-15T09:25:26.563Z,24.68
2022-09-15T09:27:30.044Z,24.67
2022-09-15T09:29:35.783Z,24.40
2022-09-15T09:31:37.167Z,23.63
2022-09-15T09:33:47.535Z,23.88
2022-09-15T09:35:47.754Z,23.95
2022-09-15T09:37:46.310Z,23.33
2022-09-15T09:39:44.587Z,23.75
2022-09-15T09:41:43.860Z,23.65
2022-09-15T09:43:44.000Z,23.45
2022-09-15T09:45:44.112Z,23.57
2022-09-15T09:47:43.041Z,23.22
2022-09-15T09:49:46.771Z,23.35
2022-09-15T09:51:52.401Z,23.78
2022-09-15T09:53:54.758Z,23.80
2022-09-15T09:55:55.281Z,22.53
2022-09-15T09:57:53.641Z,22.29
2022-09-15T09:59:52.815Z,21.49
2022-09-15T10:04:21.277Z,20.95
2022-09-15T10:06:22.260Z,20.70
2022-09-15T10:08:22.032Z,20.24
2022-09-15T10:10:23.279Z,20.23
2022-09-15T10:12:25.260Z,20.26
2022-09-15T10:14:27.606Z,19.92
2022-09-15T10:16:27.642Z,19.66
2022-09-15T10:18:38.994Z,19.76
2022-09-15T10:20:47.899Z,20.16
2022-09-15T10:22:46.177Z,18.99
2022-09-15T10:24:44.930Z,20.50
2022-09-15T10:26:44.748Z,20.10
2022-09-15T10:28:43.878Z,19.41
2022-09-15T10:31:00.180Z,19.19
2022-09-15T10:33:19.482Z,17.82
2022-09-15T10:35:19.531Z,18.56
2022-09-15T10:37:28.430Z,18.67
2022-09-15T10:39:37.206Z,21.43
2022-09-15T10:41:42.556Z,21.35
2022-09-15T10:43:51.998Z,21.61
2022-09-15T10:45:53.954Z,23.23
2022-09-15T10:48:21.199Z,23.71
2022-09-15T10:50:29.747Z,24.22
2022-09-15T10:52:46.791Z,25.06
2022-09-15T10:55:03.219Z,25.91
2022-09-15T10:57:12.284Z,26.00
2022-09-15T10:59:28.088Z,25.44
2022-09-15T11:01:51.934Z,26.98
2022-09-15T11:04:21.399Z,26.49
2022-09-15T11:06:25.080Z,26.96
2022-09-15T11:08:39.750Z,27.59
2022-09-15T11:10:46.724Z,26.89
2022-09-15T11:12:57.650Z,27.43
2022-09-15T11:15:13.211Z,26.98
2022-09-15T11:17:25.070Z,26.92
2022-09-15T11:19:37.397Z,27.53
2022-09-15T11:21:40.644Z,27.73
2022-09-15T11:23:41.430Z,27.95
2022-09-15T11:25:45.183Z,28.45
2022-09-15T11:27:48.013Z,27.46
2022-09-15T11:30:06.227Z,27.52
2022-09-15T11:32:10.830Z,27.40
2022-09-15T11:34:20.169Z,26.22
2022-09-15T11:36:21.949Z,26.46
2022-09-15T11:38:32.034Z,26.45
2022-09-15T11:40:38.038Z,27.18
2022-09-15T11:42:45.056Z,26.43
2022-09-15T11:44:45.400Z,25.73
2022-09-15T11:46:58.645Z,25.83
2022-09-15T11:49:03.225Z,26.07
2022-09-15T11:51:04.152Z,27.56
2022-09-15T11:53:07.429Z,26.35
2022-09-15T11:55:14.889Z,26.31
2022-09-15T11:57:19.747Z,26.49
2022-09-15T11:59:26.120Z,26.11
2022-09-15T12:01:30.177Z,25.72
2022-09-15T12:03:37.579Z,26.53
2022-09-15T12:05:42.014Z,26.29
2022-09-15T12:07:47.202Z,27.10
2022-09-15T12:09:45.689Z,28.10
2022-09-15T12:11:46.590Z,27.80
2022-09-15T12:13:47.068Z,27.65
2022-09-15T12:15:46.597Z,27.82
2022-09-15T12:17:51.839Z,27.32
2022-09-15T12:19:56.935Z,28.25
2022-09-15T12:22:02.054Z,27.59
2022-09-15T12:24:04.945Z,28.11
2022-09-15T12:26:12.706Z,27.49
2022-09-15T12:28:40.251Z,27.23
2022-09-15T12:30:43.728Z,27.25
2022-09-15T12:32:41.947Z,27.63
2022-09-15T12:34:40.183Z,27.59
2022-09-15T12:36:44.393Z,27.75
2022-09-15T12:38:49.255Z,28.17
2022-09-15T12:40:59.105Z,27.83
2022-09-15T12:42:58.123Z,27.26
2022-09-15T12:44:59.793Z,28.08
2022-09-15T12:47:02.328Z,28.58
2022-09-15T12:49:03.679Z,28.13
2022-09-15T12:51:06.231Z,28.50
2022-09-15T12:53:14.153Z,27.62
2022-09-15T12:55:20.614Z,28.63
2022-09-15T12:57:25.343Z,28.77
2022-09-15T12:59:26.571Z,27.99
2022-09-15T13:01:46.850Z,27.69
2022-09-15T13:04:29.625Z,28.39
2022-09-15T13:06:30.426Z,28.63
2022-09-15T13:08:46.441Z,28.41
2022-09-15T13:11:00.918Z,28.54
2022-09-15T13:13:15.874Z,28.64
2022-09-15T13:15:17.076Z,29.00
2022-09-15T13:17:19.586Z,29.44
2022-09-15T13:19:23.735Z,28.74
2022-09-15T13:21:24.849Z,28.53
2022-09-15T13:23:27.442Z,29.14
2022-09-15T13:25:30.239Z,28.92
2022-09-15T13:27:35.686Z,28.25
2022-09-15T13:29:37.815Z,28.70
2022-09-15T13:31:45.423Z,28.78
2022-09-15T13:39:16.698Z,28.09
2022-09-15T13:41:44.732Z,28.31
2022-09-15T13:44:07.126Z,27.59
2022-09-15T13:46:19.256Z,28.23
2022-09-15T13:48:50.273Z,28.25
2022-09-15T13:50:56.782Z,28.38
2022-09-15T13:53:27.334Z,28.24
2022-09-15T13:55:28.973Z,28.33
2022-09-15T13:59:45.576Z,28.07
2022-09-15T14:01:44.636Z,28.63
2022-09-15T14:03:46.349Z,27.72
2022-09-15T14:05:46.064Z,27.68
2022-09-15T14:07:44.826Z,27.94
2022-09-15T14:09:50.233Z,28.10
2022-09-15T14:11:53.442Z,27.30
2022-09-15T14:13:53.225Z,28.15
2022-09-15T14:15:59.723Z,28.31
2022-09-15T14:17:58.334Z,26.86
2022-09-15T14:19:58.401Z,26.35
2022-09-15T14:21:58.692Z,26.88
2022-09-15T14:23:58.589Z,27.62
2022-09-15T14:26:00.392Z,27.55
2022-09-15T14:28:00.239Z,27.67
2022-09-15T14:30:02.309Z,27.36
2022-09-15T14:32:04.049Z,26.92
2022-09-15T14:34:04.165Z,28.16
2022-09-15T14:36:03.180Z,28.33
2022-09-15T14:38:01.830Z,28.48
2022-09-15T14:40:02.137Z,27.80
2022-09-15T14:42:09.473Z,27.69
2022-09-15T14:46:40.098Z,28.31
2022-09-15T14:48:38.445Z,27.58
2022-09-15T14:50:37.264Z,28.76
2022-09-15T14:52:40.276Z,28.15
2022-09-15T14:54:39.403Z,28.44
2022-09-15T14:56:39.483Z,29.14
2022-09-15T14:58:43.182Z,29.52
2022-09-15T15:00:52.085Z,29.78
2022-09-15T15:02:58.729Z,30.74
2022-09-15T15:05:02.255Z,29.75
2022-09-15T15:07:07.833Z,29.49
2022-09-15T15:09:11.358Z,30.01
2022-09-15T15:11:11.023Z,29.48
2022-09-15T15:13:15.347Z,29.90
2022-09-15T15:15:14.820Z,29.39
2022-09-15T15:17:34.157Z,29.53
2022-09-15T15:19:34.761Z,29.73
2022-09-15T15:21:37.706Z,30.21
2022-09-15T15:23:46.819Z,30.01
2022-09-15T15:25:47.004Z,29.27
2022-09-15T15:27:45.101Z,29.96
2022-09-15T15:29:45.517Z,29.67
2022-09-15T15:31:43.710Z,30.05
2022-09-15T15:33:49.662Z,29.40
2022-09-15T15:35:51.313Z,29.66
2022-09-15T15:37:50.262Z,29.99
2022-09-15T15:39:49.091Z,30.30
2022-09-15T15:44:07.881Z,30.79
2022-09-15T15:46:07.644Z,30.98
2022-09-15T15:48:05.954Z,31.19
2022-09-15T15:50:13.653Z,31.09
2022-09-15T15:52:12.699Z,31.04
2022-09-15T15:54:10.931Z,31.70
2022-09-15T15:56:09.473Z,31.63
2022-09-15T15:58:08.115Z,31.60
2022-09-15T16:00:21.506Z,32.10
2022-09-15T16:02:20.835Z,31.97
2022-09-15T16:04:19.097Z,32.24
2022-09-15T16:06:18.733Z,33.16
2022-09-15T16:08:23.918Z,33.75
2022-09-15T16:10:24.757Z,33.12
2022-09-15T16:12:23.018Z,33.10
2022-09-15T16:14:21.269Z,33.68
2022-09-15T16:16:21.351Z,33.83
2022-09-15T16:18:19.491Z,33.79
2022-09-15T16:20:19.857Z,34.01
2022-09-15T16:22:21.937Z,34.10
2022-09-15T16:24:20.286Z,34.20
2022-09-15T16:26:21.861Z,34.37
2022-09-15T16:28:20.177Z,35.05
2022-09-15T16:30:18.508Z,35.55
2022-09-15T16:32:19.981Z,35.39
2022-09-15T16:34:19.640Z,35.98
2022-09-15T16:36:19.931Z,36.61
2022-09-15T16:38:20.383Z,36.18
2022-09-15T16:40:18.818Z,36.12
2022-09-15T16:42:17.049Z,35.98
2022-09-15T16:44:20.233Z,36.92
2022-09-15T16:46:18.487Z,36.80
2022-09-15T16:48:16.730Z,37.28
2022-09-15T16:50:15.348Z,38.29
2022-09-15T16:52:14.145Z,38.99
2022-09-15T16:54:18.598Z,38.90
2022-09-15T16:56:17.135Z,38.80
2022-09-15T16:58:17.477Z,38.73
2022-09-15T17:00:16.583Z,39.06
2022-09-15T17:02:15.391Z,38.26
2022-09-15T17:04:17.111Z,36.68
2022-09-15T17:06:17.737Z,36.79
2022-09-15T17:08:16.014Z,37.61
2022-09-15T17:10:16.012Z,37.23
2022-09-15T17:14:18.564Z,37.02
2022-09-15T17:16:19.855Z,37.10
2022-09-15T17:18:18.591Z,36.74
2022-09-15T17:20:18.908Z,36.38
2022-09-15T17:22:17.167Z,36.98
2022-09-15T17:24:15.270Z,36.54
2022-09-15T17:26:16.532Z,37.24
2022-09-15T17:28:14.719Z,37.84
2022-09-15T17:30:13.891Z,38.33
2022-09-15T17:32:12.064Z,39.08
2022-09-15T17:34:14.365Z,38.25
2022-09-15T17:36:13.207Z,38.96
2022-09-15T17:38:11.506Z,39.06
2022-09-15T17:40:10.581Z,39.15
2022-09-15T17:42:11.268Z,39.14
2022-09-15T17:44:11.672Z,39.35
2022-09-15T17:46:10.073Z,39.11
2022-09-15T17:48:09.372Z,41.17
2022-09-15T17:50:10.912Z,40.82
2022-09-15T17:52:10.111Z,42.17
2022-09-15T17:54:10.935Z,42.19
2022-09-15T17:56:09.073Z,43.27
2022-09-15T17:58:09.502Z,44.24
2022-09-15T18:00:09.829Z,43.89
2022-09-15T18:02:18.755Z,43.14
2022-09-15T18:04:16.970Z,43.71
2022-09-15T18:06:15.128Z,44.36
2022-09-15T18:08:13.703Z,45.69
2022-09-15T18:10:12.856Z,46.43
2022-09-15T18:12:14.837Z,46.02
2022-09-15T18:14:14.513Z,45.56
2022-09-15T18:16:14.997Z,44.81
2022-09-15T18:18:17.100Z,46.33
2022-09-15T18:20:16.812Z,45.33
2022-09-15T18:22:15.689Z,45.99
2022-09-15T18:24:16.118Z,46.12
2022-09-15T18:26:14.373Z,46.06
2022-09-15T18:28:12.538Z,46.89
2022-09-15T18:30:13.377Z,45.91
2022-09-15T18:32:11.544Z,47.94
2022-09-15T18:34:10.389Z,46.62
2022-09-15T18:36:10.802Z,47.08
2022-09-15T18:38:09.443Z,47.20
2022-09-15T18:40:10.723Z,47.65
2022-09-15T18:42:10.163Z,48.29
2022-09-15T18:44:08.289Z,48.07
2022-09-15T18:46:08.093Z,48.15
2022-09-15T18:48:10.494Z,48.34
2022-09-15T18:50:13.203Z,49.12
2022-09-15T18:52:11.633Z,49.64
2022-09-15T18:54:10.721Z,50.51
2022-09-15T18:56:12.957Z,49.83
2022-09-15T18:58:11.963Z,50.88
2022-09-15T19:00:12.481Z,50.96
2022-09-15T19:02:14.601Z,50.65
2022-09-15T19:04:13.020Z,51.29
2022-09-15T19:06:11.188Z,51.63
2022-09-15T19:08:10.999Z,51.66
2022-09-15T19:10:11.018Z,51.30
2022-09-15T19:12:09.526Z,52.24
2022-09-15T19:14:08.765Z,52.47
2022-09-15T19:16:08.758Z,52.30
2022-09-15T19:18:09.045Z,52.81
2022-09-15T19:20:11.776Z,52.60
2022-09-15T19:22:10.624Z,53.59
2022-09-15T19:24:09.149Z,53.44
2022-09-15T19:26:10.163Z,53.52
2022-09-15T19:28:08.676Z,52.38
2022-09-15T19:30:10.031Z,52.93
2022-09-15T19:32:12.946Z,50.47
2022-09-15T19:34:12.699Z,52.19
2022-09-15T19:36:27.374Z,51.32
2022-09-15T19:38:26.993Z,52.97
2022-09-15T19:40:25.325Z,52.37
2022-09-15T19:42:23.764Z,53.61
2022-09-15T19:44:22.474Z,53.34
2022-09-15T19:46:24.278Z,53.88
2022-09-15T19:48:22.802Z,54.62
2022-09-15T19:50:22.727Z,54.55
2022-09-15T19:52:20.978Z,54.86
2022-09-15T19:54:19.473Z,55.40
2022-09-15T19:56:22.763Z,54.62
2022-09-15T19:58:23.853Z,55.10
2022-09-15T20:00:24.909Z,54.70
2022-09-15T20:02:23.399Z,53.29
2022-09-15T20:04:21.622Z,53.01
2022-09-15T20:06:21.558Z,53.04
2022-09-15T20:08:20.401Z,53.28
2022-09-15T20:10:18.628Z,52.49
2022-09-15T20:12:16.911Z,51.96
2022-09-15T20:14:15.890Z,52.20
2022-09-15T20:16:17.669Z,51.85
2022-09-15T20:18:16.604Z,52.65
2022-09-15T20:20:15.048Z,53.37
2022-09-15T20:22:14.900Z,52.33
2022-09-15T20:24:13.176Z,52.10
2022-09-15T20:26:13.841Z,52.54
2022-09-15T20:28:12.056Z,52.35
2022-09-15T20:30:11.176Z,52.01
2022-09-15T20:32:09.813Z,52.01
2022-09-15T20:34:08.063Z,52.45
2022-09-15T20:36:10.494Z,51.71
2022-09-15T20:38:10.166Z,51.62
2022-09-15T20:40:09.608Z,51.62
2022-09-15T20:42:08.159Z,51.27
2022-09-15T20:44:09.168Z,51.58
2022-09-15T20:46:09.176Z,51.93
2022-09-15T20:48:07.478Z,52.35
2022-09-15T20:50:06.717Z,52.06
2022-09-15T20:52:04.830Z,51.96
2022-09-15T20:54:05.599Z,51.88
2022-09-15T20:56:04.525Z,51.37
2022-09-15T20:58:02.575Z,50.96
2022-09-15T21:00:00.844Z,49.42
2022-09-15T21:01:58.950Z,51.21
2022-09-15T21:03:57.400Z,50.30
2022-09-15T21:06:02.526Z,50.28
2022-09-15T21:08:01.534Z,49.88
2022-09-15T21:10:01.002Z,49.99
2022-09-15T21:12:00.228Z,50.30
2022-09-15T21:14:02.126Z,51.09
2022-09-15T21:16:02.363Z,50.51
2022-09-15T21:18:00.708Z,51.08
2022-09-15T21:19:59.272Z,51.03
2022-09-15T21:21:58.533Z,51.52
2022-09-15T21:23:58.755Z,51.51
2022-09-15T21:26:02.632Z,51.33
2022-09-15T21:28:00.792Z,51.15
2022-09-15T21:29:59.286Z,51.35
2022-09-15T21:31:57.888Z,51.89
2022-09-15T21:33:56.754Z,51.04
2022-09-15T21:36:03.323Z,51.17
2022-09-15T21:38:01.487Z,50.62
2022-09-15T21:39:59.781Z,50.94
2022-09-15T21:41:59.412Z,51.41
2022-09-15T21:44:01.139Z,51.47
2022-09-15T21:46:00.072Z,51.93
2022-09-15T21:47:58.392Z,51.19
2022-09-15T21:49:56.746Z,51.71
2022-09-15T21:51:55.312Z,52.59
2022-09-15T21:53:55.087Z,52.62
2022-09-15T21:55:53.599Z,53.33
2022-09-15T21:57:53.138Z,52.55
2022-09-15T21:59:51.233Z,53.20
2022-09-15T22:01:49.698Z,52.09
2022-09-15T22:03:51.571Z,53.20
2022-09-15T22:05:50.762Z,52.76
2022-09-15T22:07:48.914Z,53.73
2022-09-15T22:09:48.007Z,53.35
2022-09-15T22:11:46.484Z,54.15
2022-09-15T22:13:46.096Z,53.89
2022-09-15T22:15:44.856Z,54.26
2022-09-15T22:17:42.998Z,54.27
2022-09-15T22:19:41.266Z,55.10
2022-09-15T22:21:42.155Z,55.07
2022-09-15T22:23:41.139Z,54.70
2022-09-15T22:25:39.335Z,54.98
2022-09-15T22:27:37.559Z,54.87
2022-09-15T22:29:37.264Z,54.75
2022-09-15T22:31:36.316Z,54.87
2022-09-15T22:33:35.337Z,54.89
2022-09-15T22:35:33.616Z,55.18
2022-09-15T22:37:34.024Z,55.12
2022-09-15T22:39:57.435Z,54.35
2022-09-15T22:41:50.553Z,55.04
2022-09-15T22:43:50.689Z,54.58
2022-09-15T22:45:50.659Z,54.63
2022-09-15T22:47:48.896Z,55.10
2022-09-15T22:49:47.142Z,54.86
2022-09-15T22:51:46.121Z,54.82
2022-09-15T22:53:44.269Z,56.76
2022-09-15T22:55:42.702Z,56.36
2022-09-15T22:57:41.721Z,56.16
2022-09-15T22:59:39.749Z,56.40
2022-09-15T23:01:39.499Z,56.08
2022-09-15T23:03:37.661Z,56.20
2022-09-15T23:05:36.240Z,55.80
2022-09-15T23:07:37.834Z,56.46
2022-09-15T23:09:36.131Z,56.60
2022-09-15T23:11:34.706Z,56.63
2022-09-15T23:13:33.368Z,56.50
2022-09-15T23:15:31.456Z,56.18
2022-09-15T23:17:30.957Z,56.30
2022-09-15T23:19:29.378Z,56.98
2022-09-15T23:21:28.310Z,56.91
2022-09-15T23:23:27.359Z,56.92
2022-09-15T23:25:26.091Z,57.09
2022-09-15T23:27:24.643Z,57.26
2022-09-15T23:29:24.944Z,57.04
2022-09-15T23:31:23.583Z,57.88
2022-09-15T23:33:24.397Z,58.01
2022-09-15T23:35:22.526Z,58.17
2022-09-15T23:37:20.695Z,57.88
2022-09-15T23:39:19.114Z,57.92
2022-09-15T23:41:18.226Z,57.74
2022-09-15T23:43:16.654Z,57.53
2022-09-15T23:45:14.964Z,57.47
2022-09-15T23:47:13.130Z,57.77
2022-09-15T23:49:17.976Z,58.18
2022-09-15T23:51:16.906Z,58.21
2022-09-15T23:53:15.030Z,58.28
2022-09-15T23:55:13.191Z,58.15
2022-09-15T23:57:11.883Z,58.87
2022-09-15T23:59:10.115Z,58.48
